sensor_id;sensor_type;location;lat;lon;timestamp;P1;durP1;ratioP1;P2;durP2;ratioP2
34302;SDS011;20785;50.020;19.916;2022-12-16T00:01:53;47.93;;;21.12;;
34302;SDS011;20785;50.020;19.916;2022-12-16T00:07:55;53.50;;;23.22;;
34302;SDS011;20785;50.020;19.916;2022-12-16T00:13:56;55.80;;;23.70;;
34302;SDS011;20785;50.020;19.916;2022-12-16T00:19:57;59.03;;;24.72;;
34302;SDS011;20785;50.020;19.916;2022-12-16T00:25:58;56.00;;;24.02;;
34302;SDS011;20785;50.020;19.916;2022-12-16T00:31:59;60.00;;;25.92;;
34302;SDS011;20785;50.020;19.916;2022-12-16T00:38:02;57.15;;;25.02;;
34302;SDS011;20785;50.020;19.916;2022-12-16T00:44:03;54.90;;;22.82;;
34302;SDS011;20785;50.020;19.916;2022-12-16T00:50:05;59.27;;;26.87;;
34302;SDS011;20785;50.020;19.916;2022-12-16T00:56:08;55.98;;;25.92;;
34302;SDS011;20785;50.020;19.916;2022-12-16T01:02:12;61.20;;;25.82;;
34302;SDS011;20785;50.020;19.916;2022-12-16T01:08:13;60.15;;;25.12;;
34302;SDS011;20785;50.020;19.916;2022-12-16T01:14:14;59.67;;;26.35;;
34302;SDS011;20785;50.020;19.916;2022-12-16T01:20:15;60.08;;;25.20;;
34302;SDS011;20785;50.020;19.916;2022-12-16T01:26:17;54.35;;;24.30;;
34302;SDS011;20785;50.020;19.916;2022-12-16T01:32:18;53.70;;;24.75;;
34302;SDS011;20785;50.020;19.916;2022-12-16T01:38:20;63.55;;;27.80;;
34302;SDS011;20785;50.020;19.916;2022-12-16T01:44:22;60.45;;;25.95;;
34302;SDS011;20785;50.020;19.916;2022-12-16T01:50:24;54.33;;;24.70;;
34302;SDS011;20785;50.020;19.916;2022-12-16T01:56:27;59.35;;;26.05;;
34302;SDS011;20785;50.020;19.916;2022-12-16T02:02:30;55.35;;;23.95;;
34302;SDS011;20785;50.020;19.916;2022-12-16T02:08:31;58.63;;;24.77;;
34302;SDS011;20785;50.020;19.916;2022-12-16T02:33:50;59.90;;;24.90;;
34302;SDS011;20785;50.020;19.916;2022-12-16T02:39:59;59.85;;;25.68;;
34302;SDS011;20785;50.020;19.916;2022-12-16T02:46:02;58.98;;;24.72;;
34302;SDS011;20785;50.020;19.916;2022-12-16T02:52:04;51.73;;;24.05;;
34302;SDS011;20785;50.020;19.916;2022-12-16T03:04:33;54.03;;;23.80;;
34302;SDS011;20785;50.020;19.916;2022-12-16T03:10:35;50.60;;;22.87;;
34302;SDS011;20785;50.020;19.916;2022-12-16T03:16:41;54.70;;;23.30;;
34302;SDS011;20785;50.020;19.916;2022-12-16T03:22:45;52.73;;;22.77;;
34302;SDS011;20785;50.020;19.916;2022-12-16T03:28:50;52.88;;;22.93;;
34302;SDS011;20785;50.020;19.916;2022-12-16T03:41:30;43.98;;;21.97;;
34302;SDS011;20785;50.020;19.916;2022-12-16T03:47:32;49.83;;;22.30;;
34302;SDS011;20785;50.020;19.916;2022-12-16T03:53:33;50.05;;;22.65;;
34302;SDS011;20785;50.020;19.916;2022-12-16T03:59:34;46.50;;;22.07;;
34302;SDS011;20785;50.020;19.916;2022-12-16T04:05:35;55.65;;;25.17;;
34302;SDS011;20785;50.020;19.916;2022-12-16T04:11:36;53.80;;;23.98;;
34302;SDS011;20785;50.020;19.916;2022-12-16T04:17:56;46.13;;;21.40;;
34302;SDS011;20785;50.020;19.916;2022-12-16T04:24:17;49.40;;;21.20;;
34302;SDS011;20785;50.020;19.916;2022-12-16T04:30:19;47.85;;;21.02;;
34302;SDS011;20785;50.020;19.916;2022-12-16T04:36:21;40.20;;;19.57;;
34302;SDS011;20785;50.020;19.916;2022-12-16T04:42:41;44.48;;;20.82;;
34302;SDS011;20785;50.020;19.916;2022-12-16T04:49:00;38.00;;;17.42;;
34302;SDS011;20785;50.020;19.916;2022-12-16T04:55:20;39.23;;;19.23;;
34302;SDS011;20785;50.020;19.916;2022-12-16T05:01:39;37.85;;;17.07;;
34302;SDS011;20785;50.020;19.916;2022-12-16T05:07:59;39.50;;;18.50;;
34302;SDS011;20785;50.020;19.916;2022-12-16T05:14:19;37.83;;;16.97;;
34302;SDS011;20785;50.020;19.916;2022-12-16T05:20:38;34.30;;;17.67;;
34302;SDS011;20785;50.020;19.916;2022-12-16T05:26:58;32.00;;;15.80;;
34302;SDS011;20785;50.020;19.916;2022-12-16T05:33:18;36.88;;;17.42;;
34302;SDS011;20785;50.020;19.916;2022-12-16T05:39:37;33.55;;;16.77;;
34302;SDS011;20785;50.020;19.916;2022-12-16T05:45:57;32.42;;;16.67;;
34302;SDS011;20785;50.020;19.916;2022-12-16T05:52:16;30.60;;;15.78;;
34302;SDS011;20785;50.020;19.916;2022-12-16T05:58:36;31.90;;;15.63;;
34302;SDS011;20785;50.020;19.916;2022-12-16T06:04:55;33.67;;;16.20;;
34302;SDS011;20785;50.020;19.916;2022-12-16T06:11:15;30.48;;;15.85;;
34302;SDS011;20785;50.020;19.916;2022-12-16T06:17:35;30.65;;;16.07;;
34302;SDS011;20785;50.020;19.916;2022-12-16T06:23:55;34.35;;;16.00;;
34302;SDS011;20785;50.020;19.916;2022-12-16T06:30:14;27.93;;;13.93;;
34302;SDS011;20785;50.020;19.916;2022-12-16T06:36:34;33.85;;;16.17;;
34302;SDS011;20785;50.020;19.916;2022-12-16T06:42:53;29.35;;;14.70;;
34302;SDS011;20785;50.020;19.916;2022-12-16T06:49:13;25.62;;;13.53;;
34302;SDS011;20785;50.020;19.916;2022-12-16T06:55:33;25.35;;;12.60;;
34302;SDS011;20785;50.020;19.916;2022-12-16T07:01:53;25.65;;;13.22;;
34302;SDS011;20785;50.020;19.916;2022-12-16T07:08:12;24.50;;;13.10;;
34302;SDS011;20785;50.020;19.916;2022-12-16T07:14:32;28.38;;;14.00;;
34302;SDS011;20785;50.020;19.916;2022-12-16T07:20:51;26.17;;;13.40;;
34302;SDS011;20785;50.020;19.916;2022-12-16T07:27:11;23.10;;;12.37;;
34302;SDS011;20785;50.020;19.916;2022-12-16T07:33:31;21.90;;;11.57;;
34302;SDS011;20785;50.020;19.916;2022-12-16T07:39:51;22.10;;;11.45;;
34302;SDS011;20785;50.020;19.916;2022-12-16T07:46:10;20.85;;;10.75;;
34302;SDS011;20785;50.020;19.916;2022-12-16T07:52:30;18.25;;;10.68;;
34302;SDS011;20785;50.020;19.916;2022-12-16T07:58:51;21.48;;;10.88;;
34302;SDS011;20785;50.020;19.916;2022-12-16T08:05:10;22.15;;;10.80;;
34302;SDS011;20785;50.020;19.916;2022-12-16T08:11:30;20.10;;;11.45;;
34302;SDS011;20785;50.020;19.916;2022-12-16T08:17:50;19.55;;;10.40;;
34302;SDS011;20785;50.020;19.916;2022-12-16T08:24:10;18.95;;;9.75;;
34302;SDS011;20785;50.020;19.916;2022-12-16T08:30:30;20.77;;;9.85;;
34302;SDS011;20785;50.020;19.916;2022-12-16T08:36:49;16.42;;;9.13;;
34302;SDS011;20785;50.020;19.916;2022-12-16T08:43:09;11.73;;;7.60;;
34302;SDS011;20785;50.020;19.916;2022-12-16T08:49:29;17.77;;;9.58;;
34302;SDS011;20785;50.020;19.916;2022-12-16T08:55:49;17.52;;;9.45;;
34302;SDS011;20785;50.020;19.916;2022-12-16T09:02:11;21.70;;;10.72;;
34302;SDS011;20785;50.020;19.916;2022-12-16T09:08:32;19.75;;;10.40;;
34302;SDS011;20785;50.020;19.916;2022-12-16T09:14:54;16.05;;;9.43;;
34302;SDS011;20785;50.020;19.916;2022-12-16T09:21:17;16.82;;;9.10;;
34302;SDS011;20785;50.020;19.916;2022-12-16T09:27:37;14.50;;;8.25;;
34302;SDS011;20785;50.020;19.916;2022-12-16T09:33:57;13.18;;;8.00;;
34302;SDS011;20785;50.020;19.916;2022-12-16T09:40:16;13.25;;;8.13;;
34302;SDS011;20785;50.020;19.916;2022-12-16T09:46:42;14.73;;;8.38;;
34302;SDS011;20785;50.020;19.916;2022-12-16T09:53:16;15.17;;;8.37;;
34302;SDS011;20785;50.020;19.916;2022-12-16T09:59:35;14.75;;;8.55;;
34302;SDS011;20785;50.020;19.916;2022-12-16T10:05:59;14.28;;;8.10;;
34302;SDS011;20785;50.020;19.916;2022-12-16T10:31:37;18.62;;;10.85;;
34302;SDS011;20785;50.020;19.916;2022-12-16T10:37:57;18.82;;;10.82;;
34302;SDS011;20785;50.020;19.916;2022-12-16T10:44:34;21.15;;;11.35;;
34302;SDS011;20785;50.020;19.916;2022-12-16T10:50:59;19.65;;;10.82;;
34302;SDS011;20785;50.020;19.916;2022-12-16T11:03:59;21.93;;;12.00;;
34302;SDS011;20785;50.020;19.916;2022-12-16T11:10:22;22.25;;;12.00;;
34302;SDS011;20785;50.020;19.916;2022-12-16T11:23:40;20.95;;;11.95;;
34302;SDS011;20785;50.020;19.916;2022-12-16T11:30:10;22.77;;;11.50;;
34302;SDS011;20785;50.020;19.916;2022-12-16T11:36:25;21.57;;;12.07;;
34302;SDS011;20785;50.020;19.916;2022-12-16T11:42:45;21.80;;;11.70;;
34302;SDS011;20785;50.020;19.916;2022-12-16T11:49:07;20.20;;;11.10;;
34302;SDS011;20785;50.020;19.916;2022-12-16T11:55:28;21.23;;;12.23;;
34302;SDS011;20785;50.020;19.916;2022-12-16T12:01:52;24.50;;;12.35;;
34302;SDS011;20785;50.020;19.916;2022-12-16T12:14:56;25.00;;;13.05;;
34302;SDS011;20785;50.020;19.916;2022-12-16T12:21:21;22.35;;;12.07;;
34302;SDS011;20785;50.020;19.916;2022-12-16T12:47:52;23.73;;;12.03;;
34302;SDS011;20785;50.020;19.916;2022-12-16T13:00:51;22.15;;;13.03;;
34302;SDS011;20785;50.020;19.916;2022-12-16T13:07:12;24.45;;;14.10;;
34302;SDS011;20785;50.020;19.916;2022-12-16T13:13:34;27.17;;;15.95;;
34302;SDS011;20785;50.020;19.916;2022-12-16T13:19:54;28.87;;;16.07;;
34302;SDS011;20785;50.020;19.916;2022-12-16T13:26:16;24.95;;;14.20;;
34302;SDS011;20785;50.020;19.916;2022-12-16T13:32:37;29.42;;;14.30;;
34302;SDS011;20785;50.020;19.916;2022-12-16T13:38:57;33.95;;;16.25;;
34302;SDS011;20785;50.020;19.916;2022-12-16T13:51:57;36.85;;;18.20;;
34302;SDS011;20785;50.020;19.916;2022-12-16T13:58:20;29.45;;;15.75;;
34302;SDS011;20785;50.020;19.916;2022-12-16T14:04:43;30.50;;;16.27;;
34302;SDS011;20785;50.020;19.916;2022-12-16T14:11:06;34.08;;;18.07;;
34302;SDS011;20785;50.020;19.916;2022-12-16T14:17:52;35.68;;;18.67;;
34302;SDS011;20785;50.020;19.916;2022-12-16T14:24:11;33.20;;;17.30;;
34302;SDS011;20785;50.020;19.916;2022-12-16T14:30:35;35.90;;;18.07;;
34302;SDS011;20785;50.020;19.916;2022-12-16T14:36:55;36.45;;;18.60;;
34302;SDS011;20785;50.020;19.916;2022-12-16T14:43:19;39.25;;;19.10;;
34302;SDS011;20785;50.020;19.916;2022-12-16T14:49:47;39.23;;;18.60;;
34302;SDS011;20785;50.020;19.916;2022-12-16T15:02:39;37.03;;;18.57;;
34302;SDS011;20785;50.020;19.916;2022-12-16T15:09:01;39.60;;;19.67;;
34302;SDS011;20785;50.020;19.916;2022-12-16T15:21:52;40.60;;;20.15;;
34302;SDS011;20785;50.020;19.916;2022-12-16T15:28:25;39.65;;;19.65;;
34302;SDS011;20785;50.020;19.916;2022-12-16T15:34:47;41.68;;;20.00;;
34302;SDS011;20785;50.020;19.916;2022-12-16T15:40:51;40.43;;;20.10;;
34302;SDS011;20785;50.020;19.916;2022-12-16T15:54:02;44.00;;;21.33;;
34302;SDS011;20785;50.020;19.916;2022-12-16T16:00:26;46.23;;;22.22;;
34302;SDS011;20785;50.020;19.916;2022-12-16T16:13:09;45.20;;;21.68;;
34302;SDS011;20785;50.020;19.916;2022-12-16T16:19:29;41.58;;;21.20;;
34302;SDS011;20785;50.020;19.916;2022-12-16T16:25:48;44.88;;;21.82;;
34302;SDS011;20785;50.020;19.916;2022-12-16T16:32:08;44.60;;;21.05;;
34302;SDS011;20785;50.020;19.916;2022-12-16T16:38:31;42.40;;;20.85;;
34302;SDS011;20785;50.020;19.916;2022-12-16T16:44:53;44.30;;;21.30;;
34302;SDS011;20785;50.020;19.916;2022-12-16T16:51:21;43.42;;;20.65;;
34302;SDS011;20785;50.020;19.916;2022-12-16T16:57:46;44.38;;;21.87;;
34302;SDS011;20785;50.020;19.916;2022-12-16T17:04:09;57.27;;;27.40;;
34302;SDS011;20785;50.020;19.916;2022-12-16T17:10:28;57.23;;;27.00;;
34302;SDS011;20785;50.020;19.916;2022-12-16T17:16:48;57.45;;;29.20;;
34302;SDS011;20785;50.020;19.916;2022-12-16T17:23:09;58.58;;;27.55;;
34302;SDS011;20785;50.020;19.916;2022-12-16T17:29:31;57.20;;;28.67;;
34302;SDS011;20785;50.020;19.916;2022-12-16T17:35:53;65.40;;;30.57;;
34302;SDS011;20785;50.020;19.916;2022-12-16T17:42:12;63.83;;;28.85;;
34302;SDS011;20785;50.020;19.916;2022-12-16T17:48:34;64.60;;;29.57;;
34302;SDS011;20785;50.020;19.916;2022-12-16T17:54:55;60.52;;;29.27;;
34302;SDS011;20785;50.020;19.916;2022-12-16T18:01:15;68.35;;;31.17;;
34302;SDS011;20785;50.020;19.916;2022-12-16T18:07:37;65.55;;;32.95;;
34302;SDS011;20785;50.020;19.916;2022-12-16T18:13:57;62.70;;;29.75;;
34302;SDS011;20785;50.020;19.916;2022-12-16T18:20:16;64.00;;;29.82;;
34302;SDS011;20785;50.020;19.916;2022-12-16T18:26:37;70.55;;;32.78;;
34302;SDS011;20785;50.020;19.916;2022-12-16T18:32:57;69.05;;;30.97;;
34302;SDS011;20785;50.020;19.916;2022-12-16T18:39:16;74.17;;;32.65;;
34302;SDS011;20785;50.020;19.916;2022-12-16T18:45:38;82.02;;;34.55;;
34302;SDS011;20785;50.020;19.916;2022-12-16T18:51:50;75.28;;;33.02;;
34302;SDS011;20785;50.020;19.916;2022-12-16T18:58:11;74.75;;;32.88;;
34302;SDS011;20785;50.020;19.916;2022-12-16T19:04:34;86.53;;;36.40;;
34302;SDS011;20785;50.020;19.916;2022-12-16T19:10:55;62.38;;;27.42;;
34302;SDS011;20785;50.020;19.916;2022-12-16T19:17:17;71.53;;;30.45;;
34302;SDS011;20785;50.020;19.916;2022-12-16T19:23:36;86.60;;;34.48;;
34302;SDS011;20785;50.020;19.916;2022-12-16T19:29:56;81.55;;;33.85;;
34302;SDS011;20785;50.020;19.916;2022-12-16T19:36:15;93.03;;;37.10;;
34302;SDS011;20785;50.020;19.916;2022-12-16T19:42:35;89.58;;;38.60;;
34302;SDS011;20785;50.020;19.916;2022-12-16T19:48:55;90.20;;;38.63;;
34302;SDS011;20785;50.020;19.916;2022-12-16T19:55:14;82.45;;;34.58;;
34302;SDS011;20785;50.020;19.916;2022-12-16T20:01:34;86.30;;;34.78;;
34302;SDS011;20785;50.020;19.916;2022-12-16T20:07:54;84.52;;;33.90;;
34302;SDS011;20785;50.020;19.916;2022-12-16T20:14:14;87.08;;;35.73;;
34302;SDS011;20785;50.020;19.916;2022-12-16T20:20:34;64.53;;;27.87;;
34302;SDS011;20785;50.020;19.916;2022-12-16T20:26:53;60.03;;;25.08;;
34302;SDS011;20785;50.020;19.916;2022-12-16T20:33:13;55.48;;;23.73;;
34302;SDS011;20785;50.020;19.916;2022-12-16T20:39:35;59.58;;;24.47;;
34302;SDS011;20785;50.020;19.916;2022-12-16T20:45:55;59.20;;;23.22;;
34302;SDS011;20785;50.020;19.916;2022-12-16T20:52:16;55.45;;;22.22;;
34302;SDS011;20785;50.020;19.916;2022-12-16T20:58:39;53.87;;;21.33;;
34302;SDS011;20785;50.020;19.916;2022-12-16T21:05:01;60.52;;;22.20;;
34302;SDS011;20785;50.020;19.916;2022-12-16T21:11:22;58.85;;;23.35;;
34302;SDS011;20785;50.020;19.916;2022-12-16T21:17:42;58.85;;;22.13;;
34302;SDS011;20785;50.020;19.916;2022-12-16T21:24:01;53.38;;;20.92;;
34302;SDS011;20785;50.020;19.916;2022-12-16T21:30:23;54.95;;;20.77;;
34302;SDS011;20785;50.020;19.916;2022-12-16T21:36:42;54.40;;;20.72;;
34302;SDS011;20785;50.020;19.916;2022-12-16T21:43:02;49.10;;;21.12;;
34302;SDS011;20785;50.020;19.916;2022-12-16T21:49:24;52.95;;;20.48;;
34302;SDS011;20785;50.020;19.916;2022-12-16T21:55:49;53.13;;;20.62;;
34302;SDS011;20785;50.020;19.916;2022-12-16T22:02:12;55.55;;;21.37;;
34302;SDS011;20785;50.020;19.916;2022-12-16T22:08:32;53.55;;;20.55;;
34302;SDS011;20785;50.020;19.916;2022-12-16T22:14:51;49.33;;;19.85;;
34302;SDS011;20785;50.020;19.916;2022-12-16T22:21:13;55.90;;;20.95;;
34302;SDS011;20785;50.020;19.916;2022-12-16T22:27:33;49.20;;;20.57;;
34302;SDS011;20785;50.020;19.916;2022-12-16T22:33:52;55.43;;;22.05;;
34302;SDS011;20785;50.020;19.916;2022-12-16T22:40:12;60.92;;;22.10;;
34302;SDS011;20785;50.020;19.916;2022-12-16T22:46:32;61.73;;;23.32;;
34302;SDS011;20785;50.020;19.916;2022-12-16T22:52:51;55.33;;;23.27;;
34302;SDS011;20785;50.020;19.916;2022-12-16T22:59:11;60.23;;;22.58;;
34302;SDS011;20785;50.020;19.916;2022-12-16T23:05:34;61.10;;;22.55;;
34302;SDS011;20785;50.020;19.916;2022-12-16T23:11:53;60.28;;;21.90;;
34302;SDS011;20785;50.020;19.916;2022-12-16T23:18:13;57.38;;;21.45;;
34302;SDS011;20785;50.020;19.916;2022-12-16T23:24:32;52.70;;;20.48;;
34302;SDS011;20785;50.020;19.916;2022-12-16T23:30:41;59.67;;;20.90;;
34302;SDS011;20785;50.020;19.916;2022-12-16T23:37:01;62.43;;;22.05;;
34302;SDS011;20785;50.020;19.916;2022-12-16T23:43:21;60.60;;;22.30;;
34302;SDS011;20785;50.020;19.916;2022-12-16T23:49:40;59.48;;;21.68;;
34302;SDS011;20785;50.020;19.916;2022-12-16T23:56:00;60.12;;;20.77;;
